Time;durP1;ratioP1;P1;durP2;ratioP2;P2;SDS_P1;SDS_P2;PMS_P1;PMS_P2;Temp;Humidity;BMP_temperature;BMP_pressure;BME280_temperature;BME280_humidity;BME280_pressure;Samples;Min_cycle;Max_cycle;Signal;HPM_P1;HPM_P2
2023/08/02 00:00:49;;;;;;;7.10;4.38;;;;;;;16.18;93.88;99990.50;5015155;28;20025;-81
2023/08/02 00:03:15;;;;;;;10.05;4.05;;;;;;;16.10;94.12;99974.31;5015207;28;20029;-81
2023/08/02 00:05:40;;;;;;;10.50;4.03;;;;;;;16.07;94.45;99971.94;5014978;28;20029;-81
2023/08/02 00:08:08;;;;;;;8.57;4.63;;;;;;;16.00;94.54;99970.84;5032823;28;20495;-81
2023/08/02 00:10:37;;;;;;;10.98;3.92;;;;;;;15.97;94.84;99973.84;5014264;28;20412;-81
2023/08/02 00:13:05;;;;;;;5.68;3.65;;;;;;;15.96;94.89;99982.88;5032882;28;20028;-81
2023/08/02 00:15:32;;;;;;;7.72;3.78;;;;;;;15.95;95.35;99978.53;5032501;28;20088;-81
2023/08/02 00:17:58;;;;;;;8.52;3.83;;;;;;;15.89;95.58;99980.81;5032685;28;20022;-81
2023/08/02 00:20:24;;;;;;;8.10;3.90;;;;;;;15.87;95.54;99985.47;5032411;28;20029;-81
2023/08/02 00:22:52;;;;;;;9.05;4.13;;;;;;;15.84;95.85;99982.28;5014694;28;20060;-81
2023/08/02 00:25:17;;;;;;;9.02;4.00;;;;;;;15.87;96.15;99990.84;5014198;28;20480;-81
2023/08/02 00:27:43;;;;;;;9.05;4.50;;;;;;;15.85;96.03;99983.94;5014908;28;20036;-81
2023/08/02 00:30:11;;;;;;;7.75;4.20;;;;;;;15.82;96.15;99982.41;5014672;28;20040;-81
2023/08/02 00:32:47;;;;;;;9.70;4.05;;;;;;;15.83;96.77;99989.47;5013843;28;20026;-81
2023/08/02 00:35:13;;;;;;;10.15;3.88;;;;;;;15.83;96.34;99992.16;5014712;28;20057;-81
2023/08/02 00:37:38;;;;;;;10.77;3.78;;;;;;;15.90;96.98;99985.19;5014453;28;20447;-81
2023/08/02 00:40:04;;;;;;;9.25;4.10;;;;;;;15.86;96.49;99961.53;5031498;28;20120;-81
2023/08/02 00:42:34;;;;;;;6.40;3.35;;;;;;;15.82;96.60;99969.00;5032361;28;20053;-81
2023/08/02 00:45:00;;;;;;;9.27;3.45;;;;;;;15.89;96.84;99963.91;5032094;28;20029;-81
2023/08/02 00:47:25;;;;;;;10.05;4.13;;;;;;;15.85;96.95;99947.28;5032395;28;20027;-81
2023/08/02 00:49:52;;;;;;;9.00;3.92;;;;;;;15.82;97.33;99941.34;5014025;28;20048;-81
2023/08/02 00:52:17;;;;;;;12.45;4.18;;;;;;;15.93;97.40;99943.81;5010936;28;20437;-81
2023/08/02 00:54:42;;;;;;;9.38;4.05;;;;;;;15.96;97.00;99942.66;5010428;28;20037;-81
2023/08/02 00:57:11;;;;;;;8.23;3.80;;;;;;;15.89;97.58;99937.91;4994889;28;20508;-81
2023/08/02 00:59:39;;;;;;;7.15;4.10;;;;;;;15.93;97.52;99924.19;4994516;28;20029;-81
2023/08/02 01:02:06;;;;;;;9.63;4.30;;;;;;;15.92;97.60;99936.78;5012593;28;20036;-81
2023/08/02 01:04:36;;;;;;;8.40;4.05;;;;;;;15.86;98.02;99913.25;5011021;28;20036;-81
2023/08/02 01:07:10;;;;;;;8.45;4.00;;;;;;;15.98;97.98;99938.00;5011338;28;20060;-82
2023/08/02 01:09:37;;;;;;;11.40;4.70;;;;;;;15.96;97.88;99930.09;5010574;28;20029;-81
2023/08/02 01:12:08;;;;;;;10.30;3.78;;;;;;;15.93;97.81;99919.66;5012335;28;20017;-81
2023/08/02 01:14:39;;;;;;;6.35;3.72;;;;;;;15.98;97.99;99936.16;5011758;28;20476;-81
2023/08/02 01:17:04;;;;;;;8.43;3.63;;;;;;;16.00;97.76;99952.06;5013041;28;20068;-82
2023/08/02 01:19:30;;;;;;;10.80;3.92;;;;;;;16.00;97.82;99935.97;5012649;28;20030;-81
2023/08/02 01:21:56;;;;;;;10.38;4.10;;;;;;;15.90;98.06;99922.66;4995240;28;20401;-81
2023/08/02 01:24:31;;;;;;;6.78;4.22;;;;;;;16.01;98.08;99935.00;4994533;28;20025;-81
2023/08/02 01:27:01;;;;;;;10.63;3.80;;;;;;;15.98;98.07;99924.59;4994363;28;20386;-81
2023/08/02 01:29:28;;;;;;;11.18;4.53;;;;;;;15.96;98.33;99929.25;5010668;28;20041;-81
2023/08/02 01:31:57;;;;;;;7.93;3.97;;;;;;;15.95;98.70;99919.53;4994136;28;20061;-81
2023/08/02 01:34:23;;;;;;;7.90;3.92;;;;;;;15.99;98.66;99912.84;5011684;28;20041;-81
2023/08/02 01:36:49;;;;;;;10.75;4.38;;;;;;;16.01;98.95;99921.59;5010907;28;20029;-81
2023/08/02 01:39:16;;;;;;;11.48;4.40;;;;;;;15.98;98.09;99920.06;4993805;28;20075;-81
2023/08/02 01:41:46;;;;;;;10.07;4.40;;;;;;;15.99;98.39;99902.13;4994303;28;20453;-81
2023/08/02 01:44:12;;;;;;;10.25;4.43;;;;;;;15.85;98.37;99876.69;5013715;28;20065;-81
2023/08/02 01:46:37;;;;;;;11.15;3.97;;;;;;;15.97;98.65;99886.19;4998214;28;20066;-81
2023/08/02 01:49:02;;;;;;;11.88;4.47;;;;;;;15.95;98.63;99885.50;5027241;28;20104;-81
2023/08/02 01:51:30;;;;;;;10.23;3.92;;;;;;;15.95;99.38;99895.41;5035200;28;20026;-81
2023/08/02 01:53:56;;;;;;;10.07;4.80;;;;;;;15.94;99.16;99877.59;5034892;28;20384;-81
2023/08/02 01:56:21;;;;;;;9.90;4.63;;;;;;;15.98;98.62;99879.00;5035305;28;20025;-81
2023/08/02 01:58:47;;;;;;;8.90;4.43;;;;;;;16.04;98.70;99892.63;5035300;28;20103;-81
2023/08/02 02:01:12;;;;;;;11.38;4.30;;;;;;;15.98;98.55;99871.78;5035223;28;20465;-81
2023/08/02 02:03:38;;;;;;;7.88;3.97;;;;;;;15.96;98.76;99864.88;5017285;28;20021;-81
2023/08/02 02:06:03;;;;;;;7.95;4.13;;;;;;;15.96;99.02;99870.25;5034957;28;20439;-81
2023/08/02 02:08:29;;;;;;;12.73;5.10;;;;;;;15.89;99.09;99853.94;5016928;28;20116;-81
2023/08/02 02:10:54;;;;;;;9.20;3.95;;;;;;;15.86;99.46;99838.16;5034958;28;20024;-81
2023/08/02 02:13:23;;;;;;;8.65;4.22;;;;;;;15.87;99.27;99831.78;5017158;28;20048;-81
2023/08/02 02:15:49;;;;;;;9.90;4.60;;;;;;;15.85;99.46;99841.81;5017044;28;20546;-81
2023/08/02 02:18:15;;;;;;;7.40;4.50;;;;;;;15.88;99.98;99837.03;5017088;28;20025;-81
2023/08/02 02:20:40;;;;;;;11.45;4.25;;;;;;;15.80;99.74;99809.31;5016792;28;20029;-81
2023/08/02 02:23:09;;;;;;;10.05;4.28;;;;;;;15.83;100.00;99803.63;5034831;28;20385;-81
2023/08/02 02:25:34;;;;;;;10.32;4.32;;;;;;;15.85;99.96;99802.47;5016513;28;20053;-82
2023/08/02 02:28:00;;;;;;;8.40;4.18;;;;;;;15.92;99.93;99793.78;5016798;28;20174;-81
2023/08/02 02:30:25;;;;;;;10.55;4.35;;;;;;;15.90;100.00;99786.72;5016792;28;20553;-81
2023/08/02 02:32:52;;;;;;;6.95;4.55;;;;;;;15.83;99.89;99768.75;5034714;28;20088;-81
2023/08/02 02:35:18;;;;;;;8.65;4.60;;;;;;;15.91;100.00;99784.88;5013181;28;20421;-82
2023/08/02 02:37:43;;;;;;;11.77;4.55;;;;;;;15.90;100.00;99794.78;5014771;28;20018;-81
2023/08/02 02:40:09;;;;;;;12.35;4.28;;;;;;;15.87;99.93;99773.63;5029418;28;20026;-81
2023/08/02 02:42:43;;;;;;;5.78;4.40;;;;;;;15.86;99.94;99776.50;5014559;28;20021;-81
2023/08/02 02:45:09;;;;;;;9.02;4.32;;;;;;;15.85;100.00;99769.44;5014639;28;20034;-81
2023/08/02 02:47:37;;;;;;;6.78;4.13;;;;;;;15.96;99.72;99777.22;5029872;28;20125;-81
2023/08/02 02:50:07;;;;;;;9.65;4.00;;;;;;;16.01;99.75;99780.28;5014215;28;20026;-81
2023/08/02 02:52:32;;;;;;;10.10;4.45;;;;;;;15.94;99.51;99779.22;5029800;28;20030;-81
2023/08/02 02:54:58;;;;;;;12.23;4.57;;;;;;;15.91;99.56;99774.16;5028615;28;20551;-81
2023/08/02 02:57:26;;;;;;;9.45;4.22;;;;;;;15.88;99.40;99769.13;5014522;28;20030;-81
2023/08/02 02:59:54;;;;;;;9.32;4.88;;;;;;;15.88;99.66;99761.06;5014234;28;20482;-81
2023/08/02 03:02:19;;;;;;;8.68;4.10;;;;;;;15.95;100.00;99770.19;5014436;28;20018;-81
2023/08/02 03:04:45;;;;;;;8.13;4.35;;;;;;;15.88;100.00;99761.94;5012634;28;20029;-81
2023/08/02 03:07:10;;;;;;;6.60;4.20;;;;;;;15.90;99.95;99746.50;5014377;28;20444;-81
2023/08/02 03:09:38;;;;;;;7.95;3.80;;;;;;;15.91;100.00;99728.56;5028866;28;20057;-81
2023/08/02 03:12:04;;;;;;;7.63;4.30;;;;;;;15.87;100.00;99695.88;5029255;28;20029;-81
2023/08/02 03:14:33;;;;;;;7.43;4.15;;;;;;;15.95;100.00;99707.66;5029116;28;20022;-81
2023/08/02 03:16:58;;;;;;;9.18;4.35;;;;;;;15.85;100.00;99694.34;5012818;28;20057;-81
2023/08/02 03:19:24;;;;;;;8.57;4.18;;;;;;;15.86;100.00;99677.28;5029024;28;20065;-81
2023/08/02 03:21:49;;;;;;;8.77;4.25;;;;;;;15.83;100.00;99674.91;5028712;28;20378;-80
2023/08/02 03:24:14;;;;;;;6.90;4.13;;;;;;;15.86;100.00;99685.31;5011994;28;20486;-81
2023/08/02 03:26:42;;;;;;;9.52;4.05;;;;;;;15.78;100.00;99669.19;5013699;28;20022;-81
2023/08/02 03:29:08;;;;;;;7.95;4.53;;;;;;;15.77;100.00;99662.16;5013825;28;20041;-82
2023/08/02 03:31:36;;;;;;;7.13;4.78;;;;;;;15.83;100.00;99670.41;5013774;28;20034;-81
2023/08/02 03:34:01;;;;;;;7.22;5.35;;;;;;;15.85;100.00;99684.50;5021684;28;20387;-81
2023/08/02 03:36:26;;;;;;;8.18;4.32;;;;;;;15.86;100.00;99685.31;5033628;28;20033;-81
2023/08/02 03:38:54;;;;;;;6.05;4.85;;;;;;;15.86;100.00;99685.31;5014889;28;20029;-81
2023/08/02 03:41:20;;;;;;;7.85;4.53;;;;;;;15.86;100.00;99669.25;5033106;28;20021;-81
2023/08/02 03:43:46;;;;;;;7.78;4.80;;;;;;;15.80;100.00;99651.13;5033345;28;20076;-81
2023/08/02 03:46:11;;;;;;;7.95;4.30;;;;;;;15.82;100.00;99651.78;5015689;28;20025;-81
2023/08/02 03:48:39;;;;;;;5.63;4.53;;;;;;;15.75;100.00;99640.84;5032895;28;20068;-81
2023/08/02 03:51:06;;;;;;;7.60;4.88;;;;;;;15.87;100.00;99649.47;5015351;28;20045;-81
2023/08/02 03:53:35;;;;;;;8.10;4.85;;;;;;;15.72;100.00;99619.72;5032666;28;20781;-81
2023/08/02 03:56:00;;;;;;;8.20;5.03;;;;;;;15.67;100.00;99619.31;5033050;28;20087;-81
2023/08/02 03:58:26;;;;;;;7.20;4.78;;;;;;;15.59;100.00;99604.06;5033002;28;20059;-81
2023/08/02 04:00:51;;;;;;;8.63;4.70;;;;;;;15.80;100.00;99624.28;5033008;28;20037;-81
2023/08/02 04:03:22;;;;;;;6.45;4.57;;;;;;;15.78;100.00;99618.25;5032808;28;20029;-81
2023/08/02 04:05:48;;;;;;;9.38;4.93;;;;;;;15.79;100.00;99606.50;5014496;28;20029;-81
2023/08/02 04:08:13;;;;;;;11.07;5.05;;;;;;;15.74;100.00;99590.94;5014948;28;20036;-81
2023/08/02 04:10:41;;;;;;;13.05;5.20;;;;;;;15.78;100.00;99594.13;5032735;28;20029;-81
2023/08/02 04:13:06;;;;;;;7.60;5.45;;;;;;;15.68;100.00;99567.44;5032788;28;20026;-81
2023/08/02 04:15:35;;;;;;;9.25;5.25;;;;;;;15.70;100.00;99570.78;5032653;28;20025;-81
2023/08/02 04:18:04;;;;;;;8.35;5.57;;;;;;;15.74;100.00;99565.97;5014720;28;20444;-81
2023/08/02 04:20:30;;;;;;;7.13;5.03;;;;;;;15.79;100.00;99574.34;5032647;28;20057;-81
2023/08/02 04:22:58;;;;;;;8.98;5.18;;;;;;;15.82;100.00;99574.00;5014410;28;20491;-81
2023/08/02 04:25:23;;;;;;;8.90;5.05;;;;;;;15.74;100.00;99555.25;5014469;28;20030;-81
2023/08/02 04:27:48;;;;;;;8.88;5.07;;;;;;;15.76;100.00;99551.38;5014739;28;20409;-81
2023/08/02 04:30:16;;;;;;;9.00;5.97;;;;;;;15.75;100.00;99543.50;5014919;28;20029;-81
2023/08/02 04:32:44;;;;;;;8.55;5.65;;;;;;;15.71;100.00;99518.03;5014437;28;20124;-81
2023/08/02 04:35:12;;;;;;;9.52;4.97;;;;;;;15.70;100.00;99519.84;5032114;28;20084;-81
2023/08/02 04:37:38;;;;;;;9.25;5.07;;;;;;;15.83;100.00;99540.84;5014588;28;20025;-81
2023/08/02 04:40:04;;;;;;;9.23;5.35;;;;;;;15.76;100.00;99518.38;5014034;28;20052;-81
2023/08/02 04:42:29;;;;;;;9.32;5.43;;;;;;;15.80;100.00;99506.34;5032252;28;20017;-81
2023/08/02 04:44:55;;;;;;;8.23;5.50;;;;;;;15.77;100.00;99503.97;5031877;28;20026;-80
2023/08/02 04:47:23;;;;;;;9.35;5.63;;;;;;;15.76;100.00;99494.25;5014245;28;20029;-81
2023/08/02 04:49:48;;;;;;;10.07;5.57;;;;;;;15.82;100.00;99483.69;5013873;28;20025;-80
2023/08/02 04:52:14;;;;;;;8.40;5.68;;;;;;;15.76;100.00;99468.25;5014663;28;20531;-81
2023/08/02 04:54:39;;;;;;;8.63;5.60;;;;;;;15.83;100.00;99471.16;5014038;28;20025;-81
2023/08/02 04:57:05;;;;;;;8.02;5.32;;;;;;;15.82;100.00;99475.66;5031914;28;20021;-81
2023/08/02 04:59:32;;;;;;;10.68;5.32;;;;;;;15.83;100.00;99468.47;5014015;28;20167;-81
2023/08/02 05:02:00;;;;;;;8.93;6.00;;;;;;;15.83;100.00;99455.91;5013812;28;20033;-81
2023/08/02 05:04:28;;;;;;;8.70;5.93;;;;;;;15.75;100.00;99442.47;5031760;28;20033;-82
2023/08/02 05:06:54;;;;;;;6.93;5.53;;;;;;;15.81;100.00;99447.16;5014084;28;20044;-81
2023/08/02 05:09:20;;;;;;;10.95;5.97;;;;;;;15.83;100.00;99447.84;5031841;28;20461;-82
2023/08/02 05:11:45;;;;;;;11.20;5.75;;;;;;;15.78;100.00;99444.81;5014497;28;20036;-82
2023/08/02 05:14:12;;;;;;;9.52;5.70;;;;;;;15.79;100.00;99453.69;5019602;28;20052;-83
2023/08/02 05:16:39;;;;;;;17.98;6.22;;;;;;;15.69;100.00;99443.13;5032531;28;20048;-83
2023/08/02 05:19:05;;;;;;;8.20;5.95;;;;;;;15.77;100.00;99440.47;5036013;28;20025;-82
2023/08/02 05:21:30;;;;;;;7.53;6.22;;;;;;;15.70;100.00;99427.88;5020801;28;20030;-82
2023/08/02 05:23:58;;;;;;;8.73;6.07;;;;;;;15.72;100.00;99434.75;5018961;28;20072;-82
2023/08/02 05:26:26;;;;;;;8.07;5.90;;;;;;;15.61;100.00;99410.91;5019576;28;20076;-82
2023/08/02 05:28:51;;;;;;;7.85;5.72;;;;;;;15.69;100.00;99421.69;5019123;28;20017;-82
2023/08/02 05:31:17;;;;;;;10.63;6.07;;;;;;;15.62;100.00;99408.09;5018968;28;20396;-82
2023/08/02 05:33:42;;;;;;;8.75;6.07;;;;;;;15.60;100.00;99394.00;5015198;28;20057;-83
2023/08/02 05:36:14;;;;;;;9.77;6.18;;;;;;;15.56;100.00;99378.41;5032002;28;20052;-83
2023/08/02 05:38:41;;;;;;;9.45;5.90;;;;;;;15.61;100.00;99382.25;5031262;28;20049;-82
2023/08/02 05:41:06;;;;;;;9.98;6.25;;;;;;;15.64;100.00;99383.78;5031441;28;20108;-82
2023/08/02 05:43:32;;;;;;;8.13;6.75;;;;;;;15.61;100.00;99384.09;5014461;28;20116;-82
2023/08/02 05:45:57;;;;;;;8.00;6.13;;;;;;;15.60;100.00;99366.38;5031196;28;20021;-82
2023/08/02 05:48:27;;;;;;;8.05;7.03;;;;;;;15.61;100.00;99358.13;5015604;28;20473;-82
2023/08/02 05:50:54;;;;;;;7.80;6.32;;;;;;;15.63;100.00;99363.34;5014649;28;20109;-82
2023/08/02 05:53:20;;;;;;;6.53;5.43;;;;;;;15.59;100.00;99352.13;5030426;28;20076;-82
2023/08/02 05:55:45;;;;;;;9.52;6.10;;;;;;;15.61;100.00;99349.28;5030915;28;20034;-81
2023/08/02 05:58:11;;;;;;;6.35;5.70;;;;;;;15.57;100.00;99321.97;5014120;28;20032;-82
2023/08/02 06:00:39;;;;;;;11.02;6.10;;;;;;;15.46;100.00;99300.84;5014488;28;20340;-82
2023/08/02 06:03:04;;;;;;;6.32;5.68;;;;;;;15.51;100.00;99289.66;5030649;28;20030;-82
2023/08/02 06:05:29;;;;;;;5.88;5.35;;;;;;;15.57;100.00;99288.97;5015524;28;20040;-82
2023/08/02 06:07:55;;;;;;;5.82;5.18;;;;;;;15.63;100.00;99294.50;5015562;28;20492;-82
2023/08/02 06:10:20;;;;;;;5.72;4.88;;;;;;;15.64;100.00;99287.28;5015509;28;20041;-82
2023/08/02 06:12:46;;;;;;;5.90;5.30;;;;;;;15.57;100.00;99270.22;5030352;28;20113;-82
2023/08/02 06:15:12;;;;;;;6.35;4.75;;;;;;;15.54;100.00;99263.34;5030757;28;20466;-83
2023/08/02 06:17:37;;;;;;;4.80;4.38;;;;;;;15.60;100.00;99265.34;5030686;28;20030;-82
2023/08/02 06:20:06;;;;;;;6.88;4.20;;;;;;;15.54;100.00;99254.47;5015386;28;20049;-82
2023/08/02 06:22:32;;;;;;;5.25;4.70;;;;;;;15.58;100.00;99247.75;5014107;28;20026;-83
2023/08/02 06:24:57;;;;;;;5.10;4.53;;;;;;;15.52;100.00;99227.84;5013360;28;20375;-82
2023/08/02 06:27:25;;;;;;;4.90;4.50;;;;;;;15.57;100.00;99236.22;5015260;28;20058;-82
2023/08/02 06:29:51;;;;;;;4.55;4.10;;;;;;;15.54;100.00;99230.38;5029103;28;20046;-81
2023/08/02 06:32:16;;;;;;;5.65;4.32;;;;;;;15.63;100.00;99237.38;5030341;28;20148;-82
2023/08/02 06:34:41;;;;;;;5.85;4.70;;;;;;;15.57;100.00;99222.81;5013719;28;20134;-82
2023/08/02 06:37:07;;;;;;;4.65;4.25;;;;;;;15.55;100.00;99202.53;5015103;28;20065;-82
2023/08/02 06:39:33;;;;;;;5.15;4.65;;;;;;;15.61;100.00;99204.53;5014471;28;20041;-81
2023/08/02 06:42:00;;;;;;;4.82;4.43;;;;;;;15.57;100.00;99192.50;5014691;28;20161;-82
2023/08/02 06:44:26;;;;;;;4.95;4.55;;;;;;;15.58;100.00;99184.28;5014778;28;20034;-83
2023/08/02 06:46:52;;;;;;;5.00;4.10;;;;;;;15.62;100.00;99184.81;5030109;28;20030;-83
2023/08/02 06:49:17;;;;;;;4.85;4.25;;;;;;;15.67;100.00;99185.09;5010291;28;20033;-82
2023/08/02 06:51:45;;;;;;;5.03;4.20;;;;;;;15.62;100.00;99177.59;4995741;28;20456;-83
2023/08/02 06:54:12;;;;;;;4.13;3.83;;;;;;;15.40;100.00;99140.78;4994860;28;20045;-83
2023/08/02 06:56:41;;;;;;;4.95;4.32;;;;;;;15.60;100.00;99155.47;4994149;28;20030;-82
2023/08/02 06:59:07;;;;;;;4.05;3.75;;;;;;;15.66;100.00;99159.31;4993736;28;20426;-82
2023/08/02 07:01:32;;;;;;;4.70;3.78;;;;;;;15.74;100.00;99145.94;4995286;28;20097;-82
2023/08/02 07:04:00;;;;;;;3.92;3.63;;;;;;;15.62;100.00;99137.38;4994742;28;20037;-83
2023/08/02 07:06:26;;;;;;;4.10;3.70;;;;;;;15.73;100.00;99143.41;4994144;28;20022;-83
2023/08/02 07:08:51;;;;;;;5.63;3.60;;;;;;;15.75;100.00;99136.03;4994784;28;20028;-83
2023/08/02 07:11:18;;;;;;;3.90;3.45;;;;;;;15.69;100.00;99117.97;5010306;28;20053;-83
2023/08/02 07:13:44;;;;;;;3.78;3.47;;;;;;;15.76;100.00;99124.31;4993738;28;20033;-83
2023/08/02 07:16:10;;;;;;;3.85;3.42;;;;;;;15.72;100.00;99123.00;4993893;28;20553;-83
2023/08/02 07:18:36;;;;;;;3.53;3.22;;;;;;;15.70;100.00;99115.09;4993764;28;20029;-83
2023/08/02 07:21:10;;;;;;;3.30;3.00;;;;;;;15.76;100.00;99121.63;4993845;28;20117;-83
2023/08/02 07:23:36;;;;;;;3.83;3.53;;;;;;;15.67;100.00;99096.66;4993133;28;20050;-84
2023/08/02 07:26:03;;;;;;;3.83;3.42;;;;;;;15.69;100.00;99102.72;4994828;28;20050;-83
2023/08/02 07:28:28;;;;;;;4.38;3.70;;;;;;;15.71;100.00;99097.19;4994907;28;20114;-84
2023/08/02 07:31:08;;;;;;;4.07;3.67;;;;;;;15.77;100.00;99093.81;4993460;28;20105;-83
2023/08/02 07:33:33;;;;;;;3.90;3.60;;;;;;;15.80;100.00;99096.16;4993429;28;20061;-84
2023/08/02 07:35:59;;;;;;;3.88;3.58;;;;;;;15.85;100.00;99100.00;4993550;28;20026;-83
2023/08/02 07:38:24;;;;;;;3.88;3.58;;;;;;;15.85;100.00;99085.72;4993234;28;20516;-83
2023/08/02 07:40:50;;;;;;;3.80;3.50;;;;;;;15.89;100.00;99084.38;4993096;28;20026;-83
2023/08/02 07:43:15;;;;;;;4.15;3.85;;;;;;;15.89;100.00;99079.03;4994585;28;20026;-84
2023/08/02 07:45:41;;;;;;;6.22;3.97;;;;;;;16.02;100.00;99081.13;4994923;28;20537;-84
2023/08/02 07:48:06;;;;;;;3.80;3.50;;;;;;;16.07;100.00;99071.56;4998513;28;20166;-84
2023/08/02 07:50:32;;;;;;;4.10;3.58;;;;;;;16.14;100.00;99069.00;5012938;28;20473;-84
2023/08/02 07:52:57;;;;;;;3.70;3.30;;;;;;;16.08;100.00;99048.25;5014226;28;20382;-84
2023/08/02 07:55:25;;;;;;;3.97;3.60;;;;;;;16.12;100.00;99061.13;5028540;28;20030;-84
2023/08/02 07:57:50;;;;;;;4.82;3.75;;;;;;;16.15;100.00;99053.72;5014080;28;20128;-85
2023/08/02 08:00:16;;;;;;;3.55;3.25;;;;;;;16.20;100.00;99043.31;5029308;28;20045;-84
2023/08/02 08:02:42;;;;;;;3.60;3.40;;;;;;;16.22;100.00;99046.66;5012856;28;20388;-85
2023/08/02 08:05:08;;;;;;;3.70;3.40;;;;;;;16.21;100.00;99036.94;5028941;28;20037;-84
2023/08/02 08:07:33;;;;;;;3.35;3.05;;;;;;;16.23;100.00;99029.53;5029230;28;20116;-85
2023/08/02 08:09:58;;;;;;;2.85;2.65;;;;;;;16.15;100.00;99006.31;5013106;28;20033;-84
2023/08/02 08:12:29;;;;;;;4.28;2.78;;;;;;;16.25;100.00;99014.13;5014100;28;20028;-85
2023/08/02 08:14:58;;;;;;;3.38;3.08;;;;;;;16.25;100.00;99023.00;5028949;28;20037;-85
2023/08/02 08:17:23;;;;;;;2.88;2.50;;;;;;;16.34;100.00;99029.13;5013934;28;20022;-84
2023/08/02 08:19:50;;;;;;;2.83;2.63;;;;;;;16.43;100.00;99033.44;5013641;28;20065;-85
2023/08/02 08:22:15;;;;;;;2.90;2.55;;;;;;;16.29;100.00;98997.47;5014057;28;20030;-85
2023/08/02 08:24:41;;;;;;;2.45;2.25;;;;;;;16.48;100.00;99023.00;5012969;28;20080;-85
2023/08/02 08:27:08;;;;;;;2.50;2.30;;;;;;;16.55;100.00;99009.69;5012580;28;20104;-84
2023/08/02 08:29:33;;;;;;;2.90;2.45;;;;;;;16.59;100.00;99002.97;5028935;28;20116;-85
2023/08/02 08:32:01;;;;;;;2.17;1.98;;;;;;;16.60;100.00;99014.53;5013819;28;20458;-85
2023/08/02 08:34:26;;;;;;;2.28;2.08;;;;;;;16.58;100.00;99012.84;5025262;28;20456;-85
2023/08/02 08:36:57;;;;;;;2.55;2.10;;;;;;;16.62;100.00;99005.28;5033142;28;20029;-85
2023/08/02 08:39:22;;;;;;;2.47;2.28;;;;;;;16.58;100.00;98993.22;5014966;28;20033;-84
2023/08/02 08:41:53;;;;;;;3.60;2.78;;;;;;;16.76;100.00;99000.97;5015706;28;20059;-85
2023/08/02 08:44:19;;;;;;;4.55;3.05;;;;;;;16.74;100.00;98997.63;5033147;28;20105;-85
2023/08/02 08:46:46;;;;;;;3.50;2.72;;;;;;;16.86;100.00;98996.19;5015703;28;20072;-84
2023/08/02 08:49:15;;;;;;;3.15;2.40;;;;;;;17.05;100.00;99010.09;5017581;28;20060;-82
2023/08/02 08:51:42;;;;;;;;;;;;;;;17.17;100.00;99008.63;5016178;28;20400;-85
2023/08/02 08:54:18;;;;;;;2.50;2.30;;;;;;;17.16;100.00;99001.59;5032763;28;19966;-85
2023/08/02 08:56:46;;;;;;;3.45;2.20;;;;;;;17.13;100.00;98993.91;5033716;28;20384;-84
2023/08/02 08:59:14;;;;;;;2.10;2.00;;;;;;;17.26;100.00;98999.44;5015691;28;20548;-85
2023/08/02 09:01:40;;;;;;;3.33;2.10;;;;;;;17.33;100.00;98994.19;5015900;28;20439;-85
2023/08/02 09:04:08;;;;;;;2.38;2.17;;;;;;;17.42;100.00;98985.00;5033313;28;20084;-85
2023/08/02 09:06:34;;;;;;;4.32;2.30;;;;;;;17.53;100.00;98986.34;5018632;28;20116;-85
2023/08/02 09:09:03;;;;;;;2.30;2.20;;;;;;;17.45;100.00;98961.25;5032778;28;20021;-85
2023/08/02 09:11:34;;;;;;;2.35;1.95;;;;;;;17.66;100.00;98967.72;5015788;28;20036;-85
2023/08/02 09:14:15;;;;;;;2.65;2.15;;;;;;;17.73;100.00;98976.69;5024894;28;20009;-85
2023/08/02 09:16:57;;;;;;;2.10;2.00;;;;;;;17.84;100.00;98967.34;5039825;28;20021;-85
2023/08/02 09:19:29;;;;;;;4.47;2.25;;;;;;;18.02;100.00;98956.97;5056936;28;20026;-85
2023/08/02 09:22:15;;;;;;;2.90;2.00;;;;;;;18.06;100.00;98960.09;5039967;28;20049;-85
2023/08/02 09:24:45;;;;;;;2.70;2.50;;;;;;;18.15;100.00;98954.44;5039812;28;20087;-85
2023/08/02 09:27:17;;;;;;;2.15;2.05;;;;;;;18.24;100.00;98948.91;5040146;28;20029;-85
2023/08/02 09:29:48;;;;;;;2.92;1.95;;;;;;;18.38;100.00;98940.78;5024283;28;20026;-85
2023/08/02 09:32:18;;;;;;;1.65;1.55;;;;;;;18.35;100.00;98927.69;5015691;28;20385;-85
2023/08/02 09:34:45;;;;;;;1.75;1.65;;;;;;;18.39;100.00;98938.91;5015237;28;20046;-85
2023/08/02 09:37:16;;;;;;;2.63;1.90;;;;;;;18.33;100.00;98940.50;5032871;28;20116;-85
2023/08/02 09:39:51;;;;;;;2.05;1.80;;;;;;;18.30;100.00;98942.75;5015029;28;20546;-85
2023/08/02 09:42:20;;;;;;;2.72;2.00;;;;;;;18.32;100.00;98935.31;5033212;28;20025;-85
2023/08/02 09:44:59;;;;;;;2.15;2.05;;;;;;;18.51;100.00;98929.25;5032728;28;20026;-85
2023/08/02 09:47:33;;;;;;;2.95;2.30;;;;;;;18.76;100.00;98910.81;5032871;28;20072;-86
2023/08/02 09:50:13;;;;;;;2.97;2.15;;;;;;;18.99;100.00;98909.72;5014493;28;20029;-85
2023/08/02 09:52:40;;;;;;;2.05;1.85;;;;;;;19.17;100.00;98917.28;5032531;28;20058;-86
2023/08/02 09:55:09;;;;;;;2.17;1.73;;;;;;;19.17;100.00;98918.09;4997952;28;20500;-86
2023/08/02 09:57:37;;;;;;;3.50;1.77;;;;;;;19.17;100.00;98910.00;5032634;28;20072;-86
2023/08/02 10:00:07;;;;;;;3.57;1.20;;;;;;;19.14;100.00;98917.66;5014427;28;20500;-86
2023/08/02 10:02:37;;;;;;;1.60;1.50;;;;;;;19.11;100.00;98926.16;5014714;28;20018;-86
2023/08/02 10:05:07;;;;;;;2.25;1.67;;;;;;;19.02;100.00;98906.63;5016022;28;20017;-86
2023/08/02 10:07:38;;;;;;;1.60;1.50;;;;;;;19.19;100.00;98913.34;5036081;28;20040;-85
2023/08/02 10:10:14;;;;;;;2.10;2.00;;;;;;;19.46;100.00;98910.75;5017897;28;20029;-85
2023/08/02 10:12:40;;;;;;;1.58;1.48;;;;;;;19.69;100.00;98907.75;5018522;28;20115;-85
2023/08/02 10:15:09;;;;;;;2.28;1.55;;;;;;;19.90;100.00;98895.97;5017991;28;20380;-86
2023/08/02 10:17:35;;;;;;;1.90;1.48;;;;;;;20.40;100.00;98886.44;5035990;28;20083;-86
2023/08/02 10:20:03;;;;;;;2.28;1.40;;;;;;;20.51;100.00;98882.28;5017800;28;20463;-86
2023/08/02 10:22:29;;;;;;;2.67;1.60;;;;;;;20.67;100.00;98869.41;5018257;28;20035;-85
2023/08/02 10:24:56;;;;;;;1.40;1.30;;;;;;;20.49;100.00;98843.84;5017441;28;20026;-86
2023/08/02 10:27:23;;;;;;;1.77;1.30;;;;;;;20.66;100.00;98870.47;5018095;28;20121;-86
2023/08/02 10:29:49;;;;;;;1.40;1.20;;;;;;;20.62;100.00;98870.06;5018018;28;20444;-86
2023/08/02 10:32:17;;;;;;;4.05;1.23;;;;;;;20.70;100.00;98874.38;5018096;28;20533;-85
2023/08/02 10:34:44;;;;;;;1.38;1.27;;;;;;;20.68;100.00;98865.66;5035370;28;20121;-86
2023/08/02 10:37:10;;;;;;;1.10;1.10;;;;;;;20.46;100.00;98838.88;5017705;28;20052;-86
2023/08/02 10:39:47;;;;;;;1.45;1.30;;;;;;;20.52;100.00;98872.31;5017210;28;20026;-86
2023/08/02 10:42:18;;;;;;;1.40;1.30;;;;;;;20.41;100.00;98849.47;5017728;28;20032;-86
2023/08/02 10:45:04;;;;;;;1.40;1.30;;;;;;;20.33;100.00;98841.59;5017589;28;20064;-85
2023/08/02 10:47:34;;;;;;;4.50;1.40;;;;;;;20.14;100.00;98840.56;5025009;28;20044;-86
2023/08/02 10:50:04;;;;;;;1.90;1.75;;;;;;;20.02;100.00;98864.63;5034904;28;20025;-86
2023/08/02 10:52:33;;;;;;;3.17;1.90;;;;;;;19.87;100.00;98853.22;5017504;28;20485;-86
2023/08/02 10:55:08;;;;;;;3.25;2.10;;;;;;;19.76;100.00;98853.81;5016963;28;20445;-86
2023/08/02 10:57:35;;;;;;;3.90;2.10;;;;;;;19.70;100.00;98829.31;5017418;28;20108;-86
2023/08/02 11:00:14;;;;;;;2.35;1.92;;;;;;;19.65;100.00;98825.59;5017308;28;20025;-86
2023/08/02 11:02:43;;;;;;;;;;;;;;;19.83;100.00;98825.00;5017619;28;20361;-86
2023/08/02 11:05:09;;;;;;;4.03;2.20;;;;;;;19.62;100.00;98813.31;5034800;28;19909;-86
2023/08/02 11:07:35;;;;;;;2.50;2.30;;;;;;;19.51;100.00;98797.75;5017203;28;20112;-86
2023/08/02 11:10:07;;;;;;;3.45;2.30;;;;;;;19.53;100.00;98830.72;5016698;28;20083;-85
2023/08/02 11:12:34;;;;;;;3.28;2.95;;;;;;;19.45;100.00;98829.03;5035093;28;20033;-86
2023/08/02 11:15:00;;;;;;;4.07;2.60;;;;;;;19.37;100.00;98825.72;5016547;28;20018;-86
2023/08/02 11:17:28;;;;;;;6.80;2.90;;;;;;;19.33;100.00;98830.69;5016803;28;20026;-85
2023/08/02 11:19:54;;;;;;;4.20;2.90;;;;;;;19.25;100.00;98826.28;5016782;28;20032;-84
2023/08/02 11:22:21;;;;;;;3.90;3.05;;;;;;;19.11;100.00;98812.97;5016877;28;20396;-84
2023/08/02 11:24:50;;;;;;;2.38;2.17;;;;;;;19.04;100.00;98818.34;5034081;28;20021;-82
2023/08/02 11:27:26;;;;;;;2.33;2.20;;;;;;;19.06;100.00;98825.19;5016551;28;20041;-83